• Join FlightAware (Why Join?)
  • Login
  • US Flag 
12:50AM EDT


 

Airport Tracker/Info


-or-


 

Live Flight TrackerFlight Track Log ✈ N588AC ✈ 04-Jun-2013 ✈ KCRE - KPSK

Flight Track Log - Related Links

Times and Time Zones

All times are in EDT time to prevent confusion due to time zone crossing. See the N588AC flight status page for this flight to view local times or setup timezone preferences in your user account.

Time Position Orientation Groundspeed Altitude Reporting Facility
EDT Latitude Longitude Course Direction KTS MPH feet Rate Location/Type
01:07PM 33.9211 -78.7006 331° Northwest 222 255 6,100  Level Jacksonville Center
01:08PM 33.9600 -78.7389 321° Northwest 206 237 8,700 2,580 Climbing Jacksonville Center
01:09PM 34.0092 -78.7717 331° Northwest 199 229 11,300 2,460 Climbing Jacksonville Center
01:10PM 34.0581 -78.8044 331° Northwest 199 229 13,700 2,340 Climbing Jacksonville Center
01:11PM 34.1237 -78.9118 338° Northwest  Level FlightAware Approximate
01:11PM 34.1072 -78.8422 328° Northwest 199 229 16,000  Level Jacksonville Center
01:12PM 34.1911 -78.9496 331° Northwest  Level FlightAware Approximate
01:12PM 34.1606 -78.8775 331° Northwest 204 235 17,900  Level Jacksonville Center
01:13PM 34.2181 -78.9150 332° Northwest 221 254 19,800 1,980 Climbing Jacksonville Center
01:14PM 34.2714 -78.9528 330° Northwest 226 260 21,900 1,500 Climbing Jacksonville Center
01:15PM 34.3311 -78.9928 331° Northwest 231 266 22,900 480 Climbing Jacksonville Center
01:17PM 34.4367 -79.0569 333° Northwest 267 307 23,100 540 Climbing Washington Center
01:18PM 34.5164 -79.1131 330° Northwest 308 354 24,300 1,140 Climbing Washington Center
01:19PM 34.5986 -79.1594 335° Northwest 313 360 25,500 780 Climbing Washington Center
01:20PM 34.6828 -79.2036 337° Northwest 323 372 26,000 240 Climbing Washington Center
01:21PM 34.7728 -79.2608 332° Northwest 338 389 26,000  Level Washington Center
01:22PM 34.8631 -79.3131 335° Northwest 351 404 26,000  Level Washington Center
01:23PM 34.9572 -79.3678 335° Northwest 364 419 26,000  Level Washington Center
01:24PM 35.0492 -79.4256 333° Northwest 369 425 26,000  Level Washington Center
01:25PM 35.2008 -79.5119 335° Northwest 367 422 26,000  Level Atlanta Center
01:26PM 35.2947 -79.5678 334° Northwest 372 428 26,000  Level Atlanta Center
01:27PM 35.3844 -79.6267 332° Northwest 372 428 26,000  Level Atlanta Center
01:28PM 35.4783 -79.6853 333° Northwest 372 428 26,000  Level Atlanta Center
01:29PM 35.5700 -79.7417 333° Northwest 372 428 26,000  Level Atlanta Center
01:30PM 35.6425 -79.7892 332° Northwest 372 428 26,000  Level Atlanta Center
01:31PM 35.7447 -79.8478 335° Northwest 367 422 26,000 -180 Level Atlanta Center
01:32PM 35.8342 -79.9047 333° Northwest 367 422 25,700 -960 Descending Atlanta Center
01:33PM 35.9386 -79.9686 334° Northwest 376 433 24,100 -1,320 Descending Atlanta Center
01:34PM 36.0261 -80.0258 332° Northwest 371 427 23,100 -780 Descending Atlanta Center
01:35PM 36.1156 -80.0831 333° Northwest 366 421 22,600 -960 Descending Atlanta Center
01:36PM 36.2050 -80.1431 332° Northwest 361 415 21,200 -1,440 Descending Atlanta Center
01:37PM 36.2814 -80.1883 334° Northwest 356 410 19,800 -1,680 Descending Atlanta Center
01:38PM 36.3667 -80.2433 333° Northwest 351 404 17,900 -2,100 Descending Atlanta Center
01:39PM 36.4539 -80.2961 334° Northwest 351 404 15,700 -1,860 Descending Atlanta Center
01:40PM 36.5306 -80.3494 331° Northwest 340 391 14,200 -780 Descending Atlanta Center
01:41PM 36.6133 -80.4025 333° Northwest 311 358 14,200  Level Atlanta Center
01:42PM 36.6900 -80.4558 331° Northwest 311 358 14,200 -1,320 Level Atlanta Center
01:43PM 36.7664 -80.5042 333° Northwest 311 358 11,600 1,380 Descending Atlanta Center
01:44PM 36.8228 -80.5769 314° West 310 357 17,000 -1,740 Climbing Atlanta Center
01:45PM 36.8703 -80.6397 313° West 285 328 8,200 -4,620 Descending Atlanta Center
01:46PM 36.9222 -80.7103 313° West 285 328 7,800 -1,140 Descending Atlanta Center
01:47PM 36.9700 -80.7758 312° West 275 316 6,000 -1,800 Descending Atlanta Center